Pagrindinis puslapis
METAR-TAF:

METAR-TAF

Oro uostai :

Kubos Santjagas, Kuba

platuma: 19-58N, ilguma: 075-51W, Aukštis: 69 m

Dabartinis oras

Ataskaita buvo paskelbta 27 minutes, ne 19:50 UTC
Vėjas 7 kt iš Pietų/Pietryčių, svyruoja nuo Rytų/Pietryčių ir Pietų/Pietvakarių
Temperatūra 28°C
Drėgmė 66%
Slėgis 1013 hPa
Matomumas: 9000 m
Mažai debesys ne aukštis 2000 ft

METAR: MUCU 251950Z 16007KT 110V200 9000 FEW020 28/21 Q1013

Laikas: 15:17 (20:17 UTC)

Prognozė

Ataskaita buvo paskelbta 3 valandos ir 17 minutes, ne 17:00 UTC
Prognozė galioja nuo 25 metu 18 UTC su 26 metu 18 UTC
Vėjas 9 kt iš Pietų
Matomumas: 9000 m
Išsisklaidę debesys ne aukštis 2000 ft
Tapsmas
nuo 26 metu 01 UTC su 26 metu 03 UTC
Vėjas 3 kt nuo kintamojo kryptimis

TAF: MUCU 251700Z 2518/2618 19009KT 9000 SCT020 BECMG 2601/2603 VRB03KT

Orai ataskaitas ir orų prognozės (METAR, TAF).

turimą stotys yra geltonos ir raudonos taškus žemėlapyje.

Perkelti pele per norėdami pamatyti stoties vardą.

Tada spustelėkite, norėdami matyti oro stebėjimo ir prognozės.

Norėdami pakeisti žemėlapį: spustelėkite ant žalios mygtukų su juodo kryžiaus žemyn,; žalią mygtuką su brūkšneliu, jei norite nutolinti; arba žalių rodyklių gretimoms žemėlapius.


METAR-TAF: